General Aviation Weather

Text Reports

Enter one or more of the following location identifiers separated by a space:

Zip Code, Four-Character ICAO or Three-Character IATA airport codes.

METAR - Aviation Routine Weather Report
KACQ - Waseca, Minnesota
Updated at 4:15 AM GMT on December 19, 2014 (10:15 PM CST):
METAR KACQ 190415Z AUTO 12004KT 7SM OVC075 M05/M07 A3025 RMK AO2
TAF - Terminal Area Forecast
KACQ - Waseca, Minnesota
Updated at 4:15 AM GMT on December 19, 2014 (10:15 PM CST):
No TAF is currently available for this location.
Decoded:
No decoded TAF is available.
PIREP - Pilot Weather Report
KACQ - Waseca, Minnesota
Updated at 4:15 AM GMT on December 19, 2014 (10:15 PM CST):
No PIREP is currently available for this location.
AIRMET - Airmens Meteorological Information
KACQ - Waseca, Minnesota
Updated at 4:15 AM GMT on December 19, 2014 (10:15 PM CST):
No AIRMET is currently available for this location.
SIGMET - Significant Meteorological Information
KACQ - Waseca, Minnesota
Updated at 4:15 AM GMT on December 19, 2014 (10:15 PM CST):
No SIGMET is currently available for this location.
NOTAM - Notice to Airmen
KACQ - Waseca, Minnesota
Updated at 4:15 AM GMT on December 19, 2014 (10:15 PM CST):
No NOTAM is currently available for this location.
Forecast Area
KACQ - Waseca, Minnesota
Updated at 4:15 AM GMT on December 19, 2014 (10:15 PM CST):
No NOTAM is currently available for this location.
Aviation Weather Maps